РПИ Ашхабад

Руководитель РПИ

Evgeny Vygornitsky*

Инструкторы РПИ
Evgeny Vygornitsky (Supervisor)
Vitaliy Alekseyev (Instructor)
Входит в состав
ЗЦ Центральная Азия

Диспетчеры РПИ

Диспетчер Рейтинг Допуски *

Аэропорты РПИ

ICAO Город Название Погода
UTAA Ашхабад Ашхабад UTAA 020100Z 29008KT 9999 NSC 29/16 Q1004 R88/70D NOSIG
UTAM Мары Мары UTAM 020100Z 05006KT CAVOKC26/12 Q1003 R88/CLRD70 NOSIG